METAR Data
IDs: Format: Raw Decoded Include TAF

Data at: 1243 UTC 26 Feb 2021

EDHI 261220Z 29012G24KT 9999 SCT023 10/05 Q1031